This is the latest recevied weather packets stored in our database for station/object KB0RPJ. If no packets are shown the sender has not sent any weather packets the latest 10 day(s).
| Time | Temp. | Humidity | Pressure | Rain* | Wind** | Luminosity | Snow |
|---|---|---|---|---|---|---|---|
| 1777828516 | 20° C | 45% | 1011.3 hPa | 0 mm | - | 742 W/m² | - |
| 1777828205 | 20° C | 44% | 1011.3 hPa | 0 mm | - | 620 W/m² | - |
| 1777827905 | 20° C | 45% | 1011.3 hPa | 0 mm | - | 800 W/m² | - |
| 1777827604 | 20° C | 47% | 1011.2 hPa | 0 mm | - | 841 W/m² | - |
| 1777827306 | 20° C | 47% | 1011.3 hPa | 0 mm | - | 754 W/m² | - |
| 1777827007 | 19.44° C | 47% | 1011.3 hPa | 0 mm | - | 744 W/m² | - |
| 1777826705 | 19.44° C | 45% | 1011.4 hPa | 0 mm | - | 715 W/m² | - |
| 1777826405 | 19.44° C | 46% | 1011.4 hPa | 0 mm | - | 699 W/m² | - |
| 1777826105 | 19.44° C | 46% | 1011.6 hPa | 0 mm | - | 824 W/m² | - |
| 1777825805 | 19.44° C | 48% | 1011.6 hPa | 0 mm | - | 709 W/m² | - |
| 1777825504 | 18.89° C | 47% | 1011.6 hPa | 0 mm | - | 602 W/m² | - |
| 1777825205 | 18.89° C | 49% | 1011.3 hPa | 0 mm | - | 714 W/m² | - |
| 1777824905 | 18.89° C | 46% | 1011.4 hPa | 0 mm | - | 679 W/m² | - |
| 1777824605 | 18.89° C | 48% | 1011.4 hPa | 0 mm | - | 611 W/m² | - |
| 1777824305 | 18.33° C | 48% | 1011.4 hPa | 0 mm | - | 768 W/m² | - |
| 1777824005 | 18.33° C | 49% | 1011.4 hPa | 0 mm | - | 634 W/m² | - |
| 1777823705 | 18.33° C | 48% | 1011.5 hPa | 0 mm | - | 717 W/m² | - |
| 1777823405 | 17.78° C | 50% | 1011.4 hPa | 0 mm | - | 610 W/m² | - |
| 1777823104 | 17.78° C | 50% | 1011.4 hPa | 0 mm | - | 630 W/m² | - |
| 1777822806 | 17.22° C | 49% | 1011.7 hPa | 0 mm | - | 482 W/m² | - |
| 1777822506 | 17.22° C | 48% | 1011.8 hPa | 0 mm | - | 719 W/m² | - |
| 1777822206 | 17.22° C | 51% | 1011.8 hPa | 0 mm | - | 347 W/m² | - |
| 1777821909 | 16.67° C | 50% | 1011.9 hPa | 0 mm | - | 746 W/m² | - |
| 1777821605 | 16.67° C | 50% | 1012 hPa | 0 mm | - | 591 W/m² | - |
| 1777821306 | 16.11° C | 50% | 1012 hPa | 0 mm | - | 577 W/m² | - |
* Rain latest hour (hover to see other rain measurements)
** Current wind speed in m/s (hover to see current wind gust speed)